createdAt,value
2023-03-02T00:03:08.369Z,14.23
2023-03-02T00:08:11.914Z,13.82
2023-03-02T00:13:16.758Z,14.65
2023-03-02T00:18:20.150Z,14.02
2023-03-02T00:23:23.577Z,14.50
2023-03-02T00:28:29.585Z,13.98
2023-03-02T00:33:33.156Z,13.65
2023-03-02T00:38:36.585Z,14.02
2023-03-02T00:43:41.868Z,14.95
2023-03-02T00:48:46.162Z,14.20
2023-03-02T00:53:49.770Z,15.48
2023-03-02T00:58:56.361Z,13.20
2023-03-02T01:04:00.757Z,14.55
2023-03-02T01:09:04.503Z,13.63
2023-03-02T01:14:09.374Z,14.20
2023-03-02T01:19:13.159Z,15.43
2023-03-02T01:24:16.974Z,15.63
2023-03-02T01:29:21.754Z,16.08
2023-03-02T01:34:25.559Z,14.85
2023-03-02T01:39:28.971Z,16.20
2023-03-02T01:44:43.551Z,16.05
2023-03-02T01:49:51.819Z,15.40
2023-03-02T01:55:00.134Z,15.27
2023-03-02T02:00:10.297Z,14.55
2023-03-02T02:05:20.765Z,15.73
2023-03-02T02:10:24.672Z,16.83
2023-03-02T02:15:29.745Z,16.30
2023-03-02T02:20:37.791Z,15.77
2023-03-02T02:25:58.131Z,16.65
2023-03-02T02:31:09.097Z,15.60
2023-03-02T02:36:19.696Z,16.38
2023-03-02T02:41:29.385Z,14.88
2023-03-02T02:46:36.234Z,15.52
2023-03-02T02:51:39.852Z,15.75
2023-03-02T02:56:45.613Z,16.52
2023-03-02T03:01:50.937Z,15.80
2023-03-02T03:06:58.350Z,15.10
2023-03-02T03:12:15.482Z,15.82
2023-03-02T03:17:19.131Z,14.27
2023-03-02T03:22:28.842Z,15.95
2023-03-02T03:27:34.605Z,16.67
2023-03-02T03:32:39.735Z,16.42
2023-03-02T03:37:45.710Z,16.80
2023-03-02T03:42:52.222Z,16.02
2023-03-02T03:47:55.766Z,17.02
2023-03-02T03:52:59.331Z,16.42
2023-03-02T03:58:06.612Z,16.23
2023-03-02T04:03:10.999Z,16.55
2023-03-02T04:08:14.925Z,16.13
2023-03-02T04:13:22.337Z,15.93
2023-03-02T04:18:26.650Z,15.88
2023-03-02T04:23:31.056Z,17.15
2023-03-02T04:28:36.064Z,16.73
2023-03-02T04:33:40.029Z,16.88
2023-03-02T04:38:43.811Z,16.95
2023-03-02T04:43:48.818Z,19.30
2023-03-02T04:48:58.685Z,17.05
2023-03-02T04:54:23.260Z,17.67
2023-03-02T04:59:31.545Z,17.20
2023-03-02T05:04:35.049Z,16.80
2023-03-02T05:09:38.379Z,16.08
2023-03-02T05:14:45.418Z,16.52
2023-03-02T05:19:49.056Z,16.75
2023-03-02T05:24:52.460Z,15.93
2023-03-02T05:29:57.421Z,16.73
2023-03-02T05:35:00.844Z,15.82
2023-03-02T05:40:06.526Z,16.50
2023-03-02T05:45:20.077Z,15.95
2023-03-02T05:50:23.745Z,16.73
2023-03-02T05:55:27.842Z,17.77
2023-03-02T06:00:32.716Z,18.58
2023-03-02T06:05:36.649Z,17.88
2023-03-02T06:10:40.207Z,17.98
2023-03-02T06:15:44.978Z,16.95
2023-03-02T06:20:48.576Z,16.70
2023-03-02T06:25:52.027Z,16.80
2023-03-02T06:30:56.897Z,16.85
2023-03-02T06:36:00.581Z,17.27
2023-03-02T06:41:04.510Z,16.80
2023-03-02T06:46:10.840Z,15.65
2023-03-02T06:51:14.442Z,16.75
2023-03-02T06:56:17.985Z,17.52
2023-03-02T07:01:23.032Z,15.32
2023-03-02T07:06:26.434Z,17.75
2023-03-02T07:11:30.421Z,15.98
2023-03-02T07:16:36.148Z,15.02
2023-03-02T07:21:39.591Z,15.45
2023-03-02T07:26:43.145Z,15.30
2023-03-02T07:31:48.774Z,18.08
2023-03-02T07:36:54.079Z,22.27
2023-03-02T07:42:00.007Z,20.65
2023-03-02T07:47:06.477Z,17.60
2023-03-02T07:52:10.050Z,17.05
2023-03-02T07:57:16.111Z,17.42
2023-03-02T08:02:21.433Z,18.40
2023-03-02T08:07:24.993Z,17.63
2023-03-02T08:12:28.838Z,18.15
2023-03-02T08:17:40.064Z,15.80
2023-03-02T08:22:54.902Z,16.65
2023-03-02T08:28:01.216Z,16.83
2023-03-02T08:33:09.591Z,15.98
2023-03-02T08:38:17.159Z,16.33
2023-03-02T08:43:22.040Z,16.48
2023-03-02T08:48:28.449Z,16.05
2023-03-02T08:53:34.611Z,18.02
2023-03-02T08:58:39.415Z,17.25
2023-03-02T09:03:47.790Z,17.60
2023-03-02T09:08:51.290Z,16.08
2023-03-02T09:13:56.179Z,15.45
2023-03-02T09:19:01.174Z,14.18
2023-03-02T09:24:05.167Z,15.23
2023-03-02T09:29:13.327Z,16.95
2023-03-02T09:34:18.325Z,16.23
2023-03-02T09:39:21.946Z,15.90
2023-03-02T09:44:56.532Z,15.25
2023-03-02T09:50:07.393Z,15.80
2023-03-02T09:55:16.647Z,14.77
2023-03-02T10:00:27.910Z,13.70
2023-03-02T10:05:39.864Z,14.52
2023-03-02T10:10:47.707Z,14.05
2023-03-02T10:16:04.665Z,13.57
2023-03-02T10:21:15.453Z,12.25
2023-03-02T10:26:35.310Z,13.40
2023-03-02T10:31:43.345Z,11.52
2023-03-02T10:36:48.272Z,13.40
2023-03-02T10:41:57.217Z,14.35
2023-03-02T10:47:01.151Z,14.73
2023-03-02T10:52:16.871Z,14.00
2023-03-02T10:57:31.326Z,14.43
2023-03-02T11:02:37.572Z,13.30
2023-03-02T11:07:53.433Z,13.32
2023-03-02T11:12:57.189Z,14.55
2023-03-02T11:18:06.237Z,12.70
2023-03-02T11:23:34.172Z,12.70
2023-03-02T11:28:48.265Z,12.73
2023-03-02T11:34:16.708Z,12.07
2023-03-02T11:39:27.016Z,11.80
2023-03-02T11:44:31.122Z,12.43
2023-03-02T11:49:41.146Z,11.43
2023-03-02T11:54:51.179Z,12.15
2023-03-02T11:59:58.915Z,12.45
2023-03-02T12:05:04.750Z,11.65
2023-03-02T12:10:28.517Z,11.77
2023-03-02T12:15:43.290Z,13.02
2023-03-02T12:20:47.233Z,12.80
2023-03-02T12:26:04.233Z,12.45
2023-03-02T12:31:16.222Z,12.75
2023-03-02T12:36:28.387Z,13.80
2023-03-02T12:41:54.191Z,12.98
2023-03-02T12:47:03.948Z,12.75
2023-03-02T12:52:24.233Z,12.85
2023-03-02T12:57:29.616Z,12.43
2023-03-02T13:02:35.639Z,13.43
2023-03-02T13:07:44.460Z,14.32
2023-03-02T13:12:49.653Z,13.50
2023-03-02T13:17:58.023Z,16.58
2023-03-02T13:23:01.549Z,13.73
2023-03-02T13:28:07.942Z,12.73
2023-03-02T13:33:23.721Z,13.85
2023-03-02T13:38:31.025Z,13.70
2023-03-02T13:43:40.902Z,13.57
2023-03-02T13:49:10.591Z,12.23
2023-03-02T13:54:30.002Z,12.75
2023-03-02T13:59:37.253Z,14.35
2023-03-02T14:04:41.009Z,14.70
2023-03-02T14:09:53.203Z,13.95
2023-03-02T14:15:05.070Z,13.00
2023-03-02T14:20:40.155Z,12.30
2023-03-02T14:25:43.773Z,13.90
2023-03-02T14:30:55.384Z,12.98
2023-03-02T14:36:18.989Z,14.15
2023-03-02T14:41:38.465Z,14.27
2023-03-02T14:47:12.459Z,12.40
2023-03-02T14:52:44.599Z,10.93
2023-03-02T14:57:56.665Z,14.00
2023-03-02T15:03:01.825Z,11.73
2023-03-02T15:08:06.164Z,14.55
2023-03-02T15:13:17.440Z,13.55
2023-03-02T15:18:27.473Z,14.18
2023-03-02T15:23:34.511Z,13.27
2023-03-02T15:28:38.133Z,13.65
2023-03-02T15:33:45.670Z,13.18
2023-03-02T15:39:18.621Z,12.88
2023-03-02T15:44:28.614Z,13.48
2023-03-02T15:49:47.605Z,13.68
2023-03-02T15:55:00.772Z,14.38
2023-03-02T16:00:17.048Z,13.80
2023-03-02T16:05:22.049Z,12.80
2023-03-02T16:10:32.041Z,12.93
2023-03-02T16:15:46.283Z,12.88
2023-03-02T16:20:53.156Z,13.05
2023-03-02T16:25:59.766Z,12.98
2023-03-02T16:31:11.531Z,14.43
2023-03-02T16:36:23.632Z,15.18
2023-03-02T16:41:29.793Z,14.93
2023-03-02T16:46:43.780Z,13.88
2023-03-02T16:51:49.255Z,14.90
2023-03-02T16:56:55.771Z,18.10
2023-03-02T17:02:01.216Z,16.60
2023-03-02T17:07:09.771Z,12.82
2023-03-02T17:12:14.840Z,15.90
2023-03-02T17:17:18.673Z,14.95
2023-03-02T17:22:29.179Z,14.07
2023-03-02T17:27:35.647Z,13.13
2023-03-02T17:32:49.154Z,13.27
2023-03-02T17:37:54.649Z,12.80
2023-03-02T17:42:58.266Z,14.25
2023-03-02T17:48:01.929Z,14.02
2023-03-02T17:53:06.814Z,15.43
2023-03-02T17:58:10.196Z,15.05
2023-03-02T18:03:15.632Z,16.20
2023-03-02T18:08:20.629Z,14.90
2023-03-02T18:13:24.095Z,14.20
2023-03-02T18:18:27.582Z,13.35
2023-03-02T18:23:32.568Z,14.63
2023-03-02T18:28:35.930Z,16.40
2023-03-02T18:33:39.582Z,17.38
2023-03-02T18:38:44.539Z,16.70
2023-03-02T18:43:51.051Z,19.77
2023-03-02T18:49:00.094Z,19.35
2023-03-02T18:54:11.952Z,17.13
2023-03-02T18:59:20.486Z,15.52
2023-03-02T19:04:26.813Z,18.88
2023-03-02T19:09:31.740Z,18.38
2023-03-02T19:14:35.313Z,15.23
2023-03-02T19:19:43.497Z,15.38
2023-03-02T19:24:52.828Z,15.55
2023-03-02T19:29:58.640Z,17.40
2023-03-02T19:35:02.785Z,18.05
2023-03-02T19:40:09.699Z,17.15
2023-03-02T19:45:16.620Z,18.33
2023-03-02T19:50:22.604Z,17.35
2023-03-02T19:55:28.173Z,16.23
2023-03-02T20:00:33.667Z,17.67
2023-03-02T20:05:37.824Z,15.95
2023-03-02T20:10:44.606Z,15.98
2023-03-02T20:15:48.605Z,17.20
2023-03-02T20:20:52.540Z,17.63
2023-03-02T20:25:57.695Z,17.33
2023-03-02T20:31:07.200Z,17.88
2023-03-02T20:36:13.353Z,22.80
2023-03-02T20:41:19.301Z,22.00
2023-03-02T20:46:26.732Z,18.63
2023-03-02T20:51:33.750Z,19.52
2023-03-02T20:56:39.247Z,18.40
2023-03-02T21:01:43.738Z,19.88
2023-03-02T21:06:49.680Z,19.80
2023-03-02T21:11:58.475Z,18.23
2023-03-02T21:17:03.724Z,19.77
2023-03-02T21:22:09.293Z,19.00
2023-03-02T21:27:16.148Z,19.92
2023-03-02T21:32:22.234Z,20.05
2023-03-02T21:37:27.158Z,20.48
2023-03-02T21:42:33.185Z,19.75
2023-03-02T21:47:40.066Z,21.77
2023-03-02T21:52:44.426Z,20.45
2023-03-02T21:57:50.021Z,19.30
2023-03-02T22:02:54.227Z,21.17
2023-03-02T22:07:58.926Z,20.20
2023-03-02T22:13:17.818Z,19.33
2023-03-02T22:18:25.890Z,20.80
2023-03-02T22:23:30.062Z,20.83
2023-03-02T22:28:42.142Z,19.95
2023-03-02T22:33:46.174Z,21.85
2023-03-02T22:38:51.402Z,19.80
2023-03-02T22:43:58.044Z,21.42
2023-03-02T22:49:01.744Z,23.30
2023-03-02T22:54:16.269Z,20.40
2023-03-02T22:59:24.724Z,20.92
2023-03-02T23:04:32.367Z,22.38
2023-03-02T23:09:36.827Z,19.92
2023-03-02T23:14:48.154Z,24.75
2023-03-02T23:19:52.207Z,24.75
2023-03-02T23:24:55.803Z,22.17
2023-03-02T23:30:00.673Z,23.77
2023-03-02T23:35:04.439Z,21.63
2023-03-02T23:40:09.570Z,22.00
2023-03-02T23:45:15.862Z,21.05
2023-03-02T23:50:19.694Z,21.50
2023-03-02T23:55:23.082Z,21.70
